ENNA METAR and TAF weather

Enter ICAO airport designator
Station Type Date Time Source
ENNA METAR 2019/04/22 19:50 UTC NOAA

ENNA 221950Z 15009KT 9999 -RA FEW013 SCT029 BKN051 05/01 Q1009 RMK WIND 1800FT 19015KT


Station Type Date Time Source
ENNA Decoded METAR 2019/04/22 19:50 UTC NOAA

Banak, Norway (ENNA) 70-04N 024-59E 8M
Apr 22, 2019 - 03:50 PM EDT / 2019.04.22 1950 UTC
Wind: from the SSE (150 degrees) at 10 MPH (9 KT):0
Visibility: greater than 7 mile(s):0
Sky conditions: mostly cloudy
Weather: light rain
Temperature: 41 F (5 C)
Dew Point: 33 F (1 C)
Relative Humidity: 75%
Pressure (altimeter): 29.80 in. Hg (1009 hPa)
ob: ENNA 221950Z 15009KT 9999 -RA FEW013 SCT029 BKN051 05/01 Q1009 RMK WIND 1800FT 19015KT
cycle: 20

Station Type Date Time Source
ENNA TAF 2019/04/22 18:57 UTC NOAA

TAF TAF ENNA 221700Z 2218/2318 18008KT 9999 FEW025 BKN050
TEMPO 2220/2224 23018KT PROB30
TEMPO 2218/2309 RA BKN014
TEMPO 2300/2312 24020G35KT

Example: see airport list